createdAt,value
2022-12-22T00:01:21.126Z,3.83
2022-12-22T00:04:29.184Z,3.81
2022-12-22T00:07:33.239Z,3.77
2022-12-22T00:10:38.039Z,3.78
2022-12-22T00:13:42.066Z,3.80
2022-12-22T00:16:56.689Z,3.79
2022-12-22T00:20:01.411Z,3.81
2022-12-22T00:23:05.558Z,3.76
2022-12-22T00:26:09.762Z,3.72
2022-12-22T00:29:14.523Z,3.70
2022-12-22T00:32:20.208Z,3.64
2022-12-22T00:35:30.145Z,3.60
2022-12-22T00:38:40.370Z,3.62
2022-12-22T00:41:44.587Z,3.67
2022-12-22T00:44:48.931Z,3.78
2022-12-22T00:47:53.061Z,3.85
2022-12-22T00:50:57.202Z,3.91
2022-12-22T00:54:01.132Z,3.93
2022-12-22T00:57:05.767Z,3.94
2022-12-22T01:00:13.490Z,3.99
2022-12-22T01:03:17.656Z,4.05
2022-12-22T01:06:22.132Z,4.03
2022-12-22T01:09:29.173Z,4.02
2022-12-22T01:12:42.359Z,3.95
2022-12-22T01:15:49.090Z,3.93
2022-12-22T01:18:53.058Z,3.87
2022-12-22T01:21:57.179Z,3.87
2022-12-22T01:25:02.395Z,3.86
2022-12-22T01:28:06.764Z,3.86
2022-12-22T01:31:10.681Z,3.90
2022-12-22T01:34:14.741Z,3.91
2022-12-22T01:37:18.879Z,3.90
2022-12-22T01:40:24.044Z,3.89
2022-12-22T01:43:42.404Z,3.90
2022-12-22T01:47:03.118Z,3.87
2022-12-22T01:50:07.211Z,3.90
2022-12-22T01:53:14.859Z,3.91
2022-12-22T01:56:24.501Z,3.95
2022-12-22T01:59:28.581Z,3.99
2022-12-22T02:02:35.709Z,4.05
2022-12-22T02:05:40.030Z,4.11
2022-12-22T02:08:52.173Z,4.14
2022-12-22T02:12:23.757Z,4.22
2022-12-22T02:15:34.321Z,4.22
2022-12-22T02:18:46.713Z,4.23
2022-12-22T02:22:04.859Z,4.22
2022-12-22T02:25:17.601Z,4.20
2022-12-22T02:28:22.606Z,4.21
2022-12-22T02:31:26.903Z,4.21
2022-12-22T02:34:33.438Z,4.20
2022-12-22T02:37:48.648Z,4.20
2022-12-22T02:41:30.056Z,4.21
2022-12-22T02:45:24.241Z,4.27
2022-12-22T02:48:35.167Z,4.34
2022-12-22T02:51:44.874Z,4.40
2022-12-22T02:54:50.997Z,4.41
2022-12-22T02:57:55.195Z,4.44
2022-12-22T03:00:59.343Z,4.45
2022-12-22T03:04:03.620Z,4.45
2022-12-22T03:07:07.740Z,4.43
2022-12-22T03:10:11.673Z,4.43
2022-12-22T03:13:19.232Z,4.43
2022-12-22T03:16:23.957Z,4.43
2022-12-22T03:19:28.097Z,4.43
2022-12-22T03:22:32.139Z,4.42
2022-12-22T03:25:36.238Z,4.45
2022-12-22T03:28:27.460Z,4.47
2022-12-22T03:31:13.289Z,4.46
2022-12-22T03:33:59.021Z,4.48
2022-12-22T03:36:44.493Z,4.49
2022-12-22T03:39:29.859Z,4.51
2022-12-22T03:42:33.679Z,4.52
2022-12-22T03:45:37.678Z,4.54
2022-12-22T03:48:24.504Z,4.70
2022-12-22T03:51:10.561Z,4.78
2022-12-22T03:53:55.846Z,4.82
2022-12-22T03:56:41.792Z,4.85
2022-12-22T03:59:27.425Z,4.86
2022-12-22T04:02:13.297Z,4.87
2022-12-22T04:04:59.045Z,4.89
2022-12-22T04:07:44.507Z,4.89
2022-12-22T04:10:48.536Z,4.91
2022-12-22T04:13:34.186Z,4.93
2022-12-22T04:16:19.621Z,4.96
2022-12-22T04:19:06.754Z,4.98
2022-12-22T04:21:52.271Z,4.99
2022-12-22T04:24:37.658Z,4.99
2022-12-22T04:27:23.094Z,5.00
2022-12-22T04:30:09.009Z,5.00
2022-12-22T04:32:54.452Z,5.01
2022-12-22T04:35:39.676Z,5.02
2022-12-22T04:38:25.106Z,5.01
2022-12-22T04:41:10.567Z,5.03
2022-12-22T04:43:56.237Z,5.04
2022-12-22T04:46:41.624Z,5.02
2022-12-22T04:49:26.908Z,5.00
2022-12-22T04:52:12.384Z,4.99
2022-12-22T04:54:57.828Z,4.98
2022-12-22T04:57:43.312Z,4.95
2022-12-22T05:00:29.116Z,4.95
2022-12-22T05:03:14.444Z,4.97
2022-12-22T05:05:59.666Z,4.95
2022-12-22T05:08:44.951Z,4.97
2022-12-22T05:11:30.400Z,4.96
2022-12-22T05:14:16.128Z,4.97
2022-12-22T05:17:01.397Z,4.97
2022-12-22T05:19:47.176Z,4.97
2022-12-22T05:22:32.519Z,4.99
2022-12-22T05:25:20.035Z,5.00
2022-12-22T05:28:05.373Z,5.00
2022-12-22T05:30:51.062Z,5.00
2022-12-22T05:33:36.938Z,5.01
2022-12-22T05:36:22.267Z,5.01
2022-12-22T05:39:08.483Z,4.99
2022-12-22T05:41:54.200Z,4.98
2022-12-22T05:44:39.537Z,4.99
2022-12-22T05:47:24.877Z,4.98
2022-12-22T05:50:12.471Z,5.00
2022-12-22T05:52:57.724Z,5.02
2022-12-22T05:55:43.178Z,5.03
2022-12-22T05:58:28.664Z,5.04
2022-12-22T06:01:14.239Z,5.01
2022-12-22T06:04:00.767Z,4.95
2022-12-22T06:06:46.568Z,4.89
2022-12-22T06:09:32.060Z,4.85
2022-12-22T06:12:17.359Z,4.84
2022-12-22T06:15:02.764Z,4.82
2022-12-22T06:17:48.475Z,4.81
2022-12-22T06:20:33.723Z,4.82
2022-12-22T06:23:20.779Z,4.80
2022-12-22T06:26:06.321Z,4.82
2022-12-22T06:28:51.577Z,4.81
2022-12-22T06:31:36.998Z,4.80
2022-12-22T06:34:22.340Z,4.80
2022-12-22T06:37:07.699Z,4.80
2022-12-22T06:39:53.206Z,4.80
2022-12-22T06:43:02.147Z,4.78
2022-12-22T06:45:51.742Z,4.80
2022-12-22T06:48:37.413Z,4.80
2022-12-22T06:51:22.880Z,4.80
2022-12-22T06:54:08.159Z,4.80
2022-12-22T06:56:53.688Z,4.81
2022-12-22T06:59:39.219Z,4.81
2022-12-22T07:02:24.692Z,4.81
2022-12-22T07:05:10.518Z,4.80
2022-12-22T07:07:55.780Z,4.78
2022-12-22T07:10:59.190Z,4.78
2022-12-22T07:13:45.309Z,4.76
2022-12-22T07:16:30.660Z,4.75
2022-12-22T07:19:16.096Z,4.72
2022-12-22T07:22:01.567Z,4.71
2022-12-22T07:24:47.260Z,4.72
2022-12-22T07:27:32.722Z,4.73
2022-12-22T07:30:18.237Z,4.73
2022-12-22T07:33:04.615Z,4.72
2022-12-22T07:36:13.776Z,4.72
2022-12-22T07:38:59.266Z,4.75
2022-12-22T07:42:03.133Z,4.75
2022-12-22T07:44:48.846Z,4.73
2022-12-22T07:47:35.688Z,4.73
2022-12-22T07:50:32.632Z,4.75
2022-12-22T07:53:17.937Z,4.78
2022-12-22T07:56:05.200Z,4.78
2022-12-22T07:58:50.419Z,4.78
2022-12-22T08:01:35.985Z,4.78
2022-12-22T08:04:22.703Z,4.79
2022-12-22T08:07:08.414Z,4.82
2022-12-22T08:09:53.729Z,4.83
2022-12-22T08:12:40.273Z,4.85
2022-12-22T08:15:25.827Z,4.89
2022-12-22T08:18:11.180Z,4.89
2022-12-22T08:20:56.768Z,4.85
2022-12-22T08:23:42.376Z,4.84
2022-12-22T08:26:49.662Z,4.81
2022-12-22T08:29:57.678Z,4.80
2022-12-22T08:32:46.828Z,4.78
2022-12-22T08:35:32.587Z,4.76
2022-12-22T08:38:18.050Z,4.73
2022-12-22T08:41:03.759Z,4.69
2022-12-22T08:43:49.439Z,4.70
2022-12-22T08:46:34.861Z,4.68
2022-12-22T08:49:20.855Z,4.68
2022-12-22T08:52:06.568Z,4.64
2022-12-22T08:54:51.978Z,4.61
2022-12-22T08:57:37.764Z,4.64
2022-12-22T09:00:24.350Z,4.62
2022-12-22T09:03:09.755Z,4.61
2022-12-22T09:06:01.371Z,4.63
2022-12-22T09:08:47.683Z,4.64
2022-12-22T09:11:33.122Z,4.63
2022-12-22T09:14:18.716Z,4.61
2022-12-22T09:17:04.748Z,4.60
2022-12-22T09:19:50.116Z,4.60
2022-12-22T09:22:35.550Z,4.60
2022-12-22T09:25:21.465Z,4.61
2022-12-22T09:28:07.859Z,4.66
2022-12-22T09:30:54.692Z,4.68
2022-12-22T09:33:40.135Z,4.70
2022-12-22T09:36:28.539Z,4.76
2022-12-22T09:39:14.876Z,4.77
2022-12-22T09:42:01.509Z,4.76
2022-12-22T09:44:50.751Z,4.82
2022-12-22T09:47:39.659Z,4.94
2022-12-22T09:50:26.975Z,5.02
2022-12-22T09:53:24.458Z,5.10
2022-12-22T09:56:15.539Z,5.14
2022-12-22T09:59:00.941Z,5.24
2022-12-22T10:01:52.275Z,5.29
2022-12-22T10:04:54.126Z,5.34
2022-12-22T10:07:42.490Z,5.39
2022-12-22T10:10:30.536Z,5.41
2022-12-22T10:13:19.829Z,5.44
2022-12-22T10:16:26.139Z,5.46
2022-12-22T10:19:13.786Z,5.47
2022-12-22T10:22:32.628Z,5.49
2022-12-22T10:25:45.283Z,5.56
2022-12-22T10:28:48.225Z,5.63
2022-12-22T10:31:37.092Z,5.66
2022-12-22T10:34:22.548Z,5.70
2022-12-22T10:37:07.922Z,5.76
2022-12-22T10:39:53.390Z,5.78
2022-12-22T10:42:38.976Z,5.76
2022-12-22T10:45:27.170Z,5.76
2022-12-22T10:48:14.442Z,5.79
2022-12-22T10:51:01.121Z,5.79
2022-12-22T10:53:49.573Z,5.80
2022-12-22T10:56:35.668Z,5.81
2022-12-22T10:59:21.022Z,5.80
2022-12-22T11:02:38.384Z,5.85
2022-12-22T11:05:24.858Z,5.91
2022-12-22T11:08:20.638Z,5.99
2022-12-22T11:11:14.465Z,6.09
2022-12-22T11:14:26.418Z,5.99
2022-12-22T11:17:31.916Z,5.97
2022-12-22T11:20:17.525Z,5.98
2022-12-22T11:23:33.174Z,6.07
2022-12-22T11:26:41.990Z,6.05
2022-12-22T11:30:04.975Z,5.95
2022-12-22T11:32:59.612Z,5.95
2022-12-22T11:36:05.045Z,5.89
2022-12-22T11:39:01.450Z,5.91
2022-12-22T11:42:01.386Z,5.95
2022-12-22T11:45:00.045Z,5.98
2022-12-22T11:48:00.985Z,6.05
2022-12-22T11:50:58.554Z,6.13
2022-12-22T11:54:11.650Z,6.29
2022-12-22T11:57:44.373Z,6.49
2022-12-22T12:01:12.263Z,6.55
2022-12-22T12:04:22.364Z,6.62
2022-12-22T12:07:26.721Z,6.59
2022-12-22T12:10:48.749Z,6.56
2022-12-22T12:13:54.077Z,6.56
2022-12-22T12:16:52.986Z,6.51
2022-12-22T12:20:06.290Z,6.45
2022-12-22T12:23:24.352Z,6.43
2022-12-22T12:26:30.938Z,6.40
2022-12-22T12:29:20.739Z,6.37
2022-12-22T12:32:19.055Z,6.38
2022-12-22T12:35:22.734Z,6.36
2022-12-22T12:38:39.733Z,6.30
2022-12-22T12:41:38.165Z,6.23
2022-12-22T12:44:27.259Z,6.23
2022-12-22T12:47:27.436Z,6.23
2022-12-22T12:50:34.050Z,6.25
2022-12-22T12:53:21.669Z,6.22
2022-12-22T12:56:09.213Z,6.21
2022-12-22T12:58:55.174Z,6.21
2022-12-22T13:01:40.716Z,6.22
2022-12-22T13:05:14.436Z,6.22
2022-12-22T13:08:18.330Z,6.30
2022-12-22T13:11:06.728Z,6.36
2022-12-22T13:13:52.784Z,6.37
2022-12-22T13:16:40.012Z,6.41
2022-12-22T13:19:27.033Z,6.46
2022-12-22T13:22:12.791Z,6.49
2022-12-22T13:25:02.243Z,6.47
2022-12-22T13:27:49.278Z,6.38
2022-12-22T13:30:34.952Z,6.33
2022-12-22T13:33:25.467Z,6.26
2022-12-22T13:36:20.203Z,6.23
2022-12-22T13:39:12.571Z,6.23
2022-12-22T13:41:58.581Z,6.23
2022-12-22T13:44:44.417Z,6.22
2022-12-22T13:47:30.340Z,6.18
2022-12-22T13:50:30.955Z,6.12
2022-12-22T13:54:06.353Z,6.10
2022-12-22T13:56:43.292Z,6.08
2022-12-22T13:59:28.818Z,6.00
2022-12-22T14:02:17.881Z,6.00
2022-12-22T14:05:09.950Z,5.95
2022-12-22T14:08:06.843Z,5.90
2022-12-22T14:10:54.141Z,5.86
2022-12-22T14:13:40.282Z,5.83
2022-12-22T14:16:26.199Z,5.83
2022-12-22T14:19:15.078Z,5.84
2022-12-22T14:22:06.238Z,5.84
2022-12-22T14:24:54.913Z,5.83
2022-12-22T14:27:48.892Z,5.83
2022-12-22T14:30:46.588Z,5.87
2022-12-22T14:33:34.287Z,5.95
2022-12-22T14:36:27.042Z,6.03
2022-12-22T14:39:25.018Z,6.17
2022-12-22T14:42:14.460Z,6.25
2022-12-22T14:45:00.634Z,6.31
2022-12-22T14:47:46.379Z,6.28
2022-12-22T14:50:31.916Z,6.24
2022-12-22T14:53:25.888Z,6.15
2022-12-22T14:56:13.787Z,6.00
2022-12-22T14:59:11.309Z,5.91
2022-12-22T15:02:36.706Z,5.81
2022-12-22T15:05:29.191Z,5.73
2022-12-22T15:08:38.769Z,5.68
2022-12-22T15:11:24.830Z,5.69
2022-12-22T15:14:16.489Z,5.71
2022-12-22T15:17:02.400Z,5.70
2022-12-22T15:19:49.712Z,5.69
2022-12-22T15:22:38.264Z,5.65
2022-12-22T15:25:25.008Z,5.60
2022-12-22T15:28:10.347Z,5.53
2022-12-22T15:30:55.698Z,5.50
2022-12-22T15:33:42.016Z,5.46
2022-12-22T15:36:27.450Z,5.42
2022-12-22T15:39:15.839Z,5.37
2022-12-22T15:42:01.065Z,5.32
2022-12-22T15:44:46.456Z,5.25
2022-12-22T15:47:32.163Z,5.16
2022-12-22T15:50:25.686Z,5.09
2022-12-22T15:53:20.769Z,4.99
2022-12-22T15:56:17.204Z,4.93
2022-12-22T15:59:03.268Z,4.87
2022-12-22T16:01:48.815Z,4.79
2022-12-22T16:04:34.504Z,4.73
2022-12-22T16:07:20.112Z,4.68
2022-12-22T16:10:08.469Z,4.60
2022-12-22T16:13:00.663Z,4.52
2022-12-22T16:15:46.413Z,4.46
2022-12-22T16:18:32.995Z,4.38
2022-12-22T16:21:24.236Z,4.32
2022-12-22T16:24:25.231Z,4.27
2022-12-22T16:27:14.777Z,4.21
2022-12-22T16:30:00.455Z,4.17
2022-12-22T16:32:46.147Z,4.13
2022-12-22T16:35:33.125Z,4.05
2022-12-22T16:38:19.541Z,3.99
2022-12-22T16:41:06.752Z,3.90
2022-12-22T16:47:04.835Z,3.81
2022-12-22T16:49:50.990Z,3.75
2022-12-22T16:52:41.471Z,3.65
2022-12-22T16:55:27.624Z,3.64
2022-12-22T16:58:14.156Z,3.57
2022-12-22T17:01:00.115Z,3.51
2022-12-22T17:03:45.575Z,3.44
2022-12-22T17:06:31.483Z,3.32
2022-12-22T17:09:26.063Z,3.29
2022-12-22T17:12:18.044Z,3.31
2022-12-22T17:15:03.628Z,3.33
2022-12-22T17:17:49.635Z,3.32
2022-12-22T17:20:35.066Z,3.25
2022-12-22T17:23:45.456Z,3.20
2022-12-22T17:26:34.152Z,3.09
2022-12-22T17:29:23.663Z,3.06
2022-12-22T17:32:13.732Z,3.04
2022-12-22T17:34:59.149Z,3.01
2022-12-22T17:37:46.319Z,3.00
2022-12-22T17:40:31.989Z,2.99
2022-12-22T17:43:19.840Z,2.98
2022-12-22T17:46:05.995Z,2.92
2022-12-22T17:48:51.606Z,2.85
2022-12-22T17:51:37.618Z,2.83
2022-12-22T17:54:28.073Z,2.81
2022-12-22T17:57:23.611Z,2.70
2022-12-22T18:00:18.344Z,2.70
2022-12-22T18:03:04.380Z,2.75
2022-12-22T18:05:49.935Z,2.80
2022-12-22T18:08:35.283Z,2.81
2022-12-22T18:11:22.597Z,2.87
2022-12-22T18:14:12.866Z,2.84
2022-12-22T18:16:58.458Z,2.84
2022-12-22T18:19:43.640Z,2.89
2022-12-22T18:22:29.883Z,2.86
2022-12-22T18:25:25.879Z,2.85
2022-12-22T18:28:15.987Z,2.81
2022-12-22T18:31:01.436Z,2.81
2022-12-22T18:33:47.454Z,2.78
2022-12-22T18:36:34.032Z,2.76
2022-12-22T18:39:20.382Z,2.75
2022-12-22T18:42:20.816Z,2.75
2022-12-22T18:45:07.548Z,2.72
2022-12-22T18:47:53.987Z,2.72
2022-12-22T18:50:40.109Z,2.70
2022-12-22T18:53:31.987Z,2.67
2022-12-22T18:56:17.891Z,2.60
2022-12-22T18:59:18.912Z,2.57
2022-12-22T19:02:33.917Z,2.57
2022-12-22T19:05:40.695Z,2.56
2022-12-22T19:08:28.106Z,2.53
2022-12-22T19:11:15.389Z,2.47
2022-12-22T19:14:00.877Z,2.45
2022-12-22T19:16:47.713Z,2.41
2022-12-22T19:19:32.919Z,2.39
2022-12-22T19:22:18.401Z,2.36
2022-12-22T19:25:04.080Z,2.33
2022-12-22T19:27:52.830Z,2.29
2022-12-22T19:30:38.158Z,2.28
2022-12-22T19:33:41.637Z,2.24
2022-12-22T19:36:28.814Z,2.23
2022-12-22T19:39:14.263Z,2.20
2022-12-22T19:41:59.605Z,2.17
2022-12-22T19:44:45.584Z,2.15
2022-12-22T19:47:30.835Z,2.15
2022-12-22T19:50:25.969Z,2.13
2022-12-22T19:53:11.993Z,2.11
2022-12-22T19:55:57.675Z,2.10
2022-12-22T19:58:42.997Z,2.09
2022-12-22T20:01:28.834Z,2.07
2022-12-22T20:04:14.425Z,2.06
2022-12-22T20:06:59.831Z,2.04
2022-12-22T20:09:45.502Z,2.01
2022-12-22T20:12:37.934Z,2.00
2022-12-22T20:15:28.821Z,1.99
2022-12-22T20:18:19.275Z,1.95
2022-12-22T20:21:08.430Z,1.91
2022-12-22T20:23:56.798Z,1.89
2022-12-22T20:26:42.466Z,1.89
2022-12-22T20:29:27.941Z,1.90
2022-12-22T20:32:15.062Z,1.92
2022-12-22T20:35:00.632Z,1.91
2022-12-22T20:37:46.811Z,1.90
2022-12-22T20:40:33.537Z,1.89
2022-12-22T20:43:22.984Z,1.86
2022-12-22T20:46:14.173Z,1.85
2022-12-22T20:49:02.185Z,1.82
2022-12-22T20:51:47.970Z,1.80
2022-12-22T20:54:33.831Z,1.77
2022-12-22T20:57:27.005Z,1.73
2022-12-22T21:00:26.954Z,1.65
2022-12-22T21:03:12.425Z,1.59
2022-12-22T21:05:58.217Z,1.49
2022-12-22T21:08:43.766Z,1.38
2022-12-22T21:11:29.866Z,1.22
2022-12-22T21:14:16.054Z,1.09
2022-12-22T21:17:01.890Z,1.03
2022-12-22T21:19:47.665Z,0.95
2022-12-22T21:22:33.523Z,0.84
2022-12-22T21:25:19.072Z,0.73
2022-12-22T21:28:07.840Z,0.58
2022-12-22T21:30:53.230Z,0.50
2022-12-22T21:33:38.605Z,0.45
2022-12-22T21:36:27.994Z,0.39
2022-12-22T21:39:31.619Z,0.41
2022-12-22T21:42:18.722Z,0.42
2022-12-22T21:45:04.907Z,0.38
2022-12-22T21:47:50.589Z,0.34
2022-12-22T21:50:36.170Z,0.37
2022-12-22T21:53:22.645Z,0.49
2022-12-22T21:56:18.857Z,0.64
2022-12-22T21:59:04.407Z,0.73
2022-12-22T22:01:53.031Z,0.78
2022-12-22T22:04:38.723Z,0.81
2022-12-22T22:07:23.996Z,0.80
2022-12-22T22:10:10.222Z,0.86
2022-12-22T22:12:56.360Z,0.92
2022-12-22T22:15:41.752Z,0.94
2022-12-22T22:18:26.936Z,0.96
2022-12-22T22:21:14.453Z,1.00
2022-12-22T22:24:00.047Z,1.01
2022-12-22T22:26:46.511Z,1.00
2022-12-22T22:29:31.856Z,1.00
2022-12-22T22:32:17.298Z,0.99
2022-12-22T22:35:02.871Z,0.97
2022-12-22T22:37:52.073Z,0.93
2022-12-22T22:40:37.672Z,0.90
2022-12-22T22:43:23.131Z,0.84
2022-12-22T22:46:08.495Z,0.76
2022-12-22T22:48:53.885Z,0.68
2022-12-22T22:51:39.149Z,0.63
2022-12-22T22:54:24.825Z,0.57
2022-12-22T23:09:22.996Z,0.25
2022-12-22T23:12:08.387Z,0.28
2022-12-22T23:14:53.709Z,0.33
2022-12-22T23:17:39.165Z,0.40
2022-12-22T23:20:24.347Z,0.42
2022-12-22T23:23:09.548Z,0.43
2022-12-22T23:25:55.163Z,0.39
2022-12-22T23:28:40.666Z,0.37
2022-12-22T23:31:26.526Z,0.40
2022-12-22T23:34:12.787Z,0.40
2022-12-22T23:36:58.603Z,0.39
2022-12-22T23:39:44.410Z,0.37
2022-12-22T23:42:29.713Z,0.30
2022-12-22T23:45:15.189Z,0.26
2022-12-22T23:48:00.509Z,0.19
2022-12-22T23:50:46.801Z,0.10
2022-12-22T23:53:32.882Z,0.03
2022-12-22T23:56:18.315Z,-0.03
2022-12-22T23:59:03.952Z,-0.09
